»·PEaware :: AAL1617 KLAX-KLAS

AAL1617 :: KLAX-KLAS

FLIGHT INFORMATION

Flight Status: Arrived
Operator:
American Airlines
More flights by this operator :: More flights under this callsign
Pilot: Jordan S. (14404)
Aircraft: BOEING 737-800
(B738)
More flights by this aircraft type
Origin: KLAX Los Angeles Intl
United States
Destination: KLAS McCarran Intl
United States
More flights between these airports :: More routes between these airports
Route: ORCKA2 MISEN KEPEC6
File this flight plan on PilotEdge
Remarks:
Altitude:
(Current/Filed)
29,000ft
Speed:
(Current/Filed)
600kts
Departed: 22-Nov-17 07:52 PM
Arrived: 22-Nov-17 08:47 PM
Distance/Time
Traveled:
205nm/0:55
Distance/Time
To Go:
Arrived

Flight Plot

Page will automatically refresh every two minutes.

Flight plan parsing failed; only flown route is shown


Map Options




Map Legend


Flown Route
Filed Route
Departure Airport
Arrival Airport
Navaid (VOR, NDB)
Fix

Horizontal Profiles

Position Reports

Time Latitude Longitude Heading Altitude Ground
Speed
22-Nov-17 19:29 33.941014 -118.401392 266 133ft 0kts
22-Nov-17 19:30 33.941012 -118.401414 266 133ft 0kts
22-Nov-17 19:31 33.941129 -118.400731 224 133ft 3kts
22-Nov-17 19:32 33.940090 -118.400623 174 133ft 0kts
22-Nov-17 19:33 33.939121 -118.396740 83 133ft 29kts
22-Nov-17 19:34 33.940211 -118.386134 83 133ft 29kts
22-Nov-17 19:35 33.940708 -118.381155 83 133ft 0kts
22-Nov-17 19:36 33.940708 -118.381155 83 133ft 0kts
22-Nov-17 19:37 33.940708 -118.381155 83 133ft 0kts
22-Nov-17 19:38 33.940708 -118.381155 83 133ft 0kts
22-Nov-17 19:39 33.940708 -118.381155 83 133ft 0kts
22-Nov-17 19:40 33.940708 -118.381155 83 133ft 0kts
22-Nov-17 19:41 33.940708 -118.381155 83 133ft 0kts
22-Nov-17 19:42 33.940708 -118.381155 83 133ft 0kts
22-Nov-17 19:43 33.940708 -118.381155 83 133ft 0kts
22-Nov-17 19:44 33.940708 -118.381155 83 133ft 0kts
22-Nov-17 19:45 33.940708 -118.381155 83 133ft 0kts
22-Nov-17 19:46 33.940708 -118.381155 83 133ft 0kts
22-Nov-17 19:47 33.940708 -118.381155 83 133ft 0kts
22-Nov-17 19:48 33.940708 -118.381155 83 133ft 0kts
22-Nov-17 19:49 33.940708 -118.381156 83 133ft 0kts
22-Nov-17 19:50 33.940708 -118.381156 83 133ft 0kts
22-Nov-17 19:51 33.940708 -118.381156 83 133ft 0kts
22-Nov-17 19:52 33.940708 -118.381156 83 133ft 0kts
22-Nov-17 19:53 33.940708 -118.381156 83 133ft 0kts
22-Nov-17 19:54 33.940708 -118.381156 83 133ft 0kts
22-Nov-17 19:55 33.940708 -118.381156 83 133ft 0kts
22-Nov-17 19:56 33.940030 -118.380179 194 133ft 7kts
22-Nov-17 19:57 33.939460 -118.383899 263 133ft 62kts
22-Nov-17 19:58 33.934795 -118.432208 264 1116ft 173kts
22-Nov-17 19:59 33.922586 -118.489691 248 2720ft 184kts
22-Nov-17 20:00 33.904760 -118.542597 248 4212ft 197kts
22-Nov-17 20:01 33.886988 -118.591079 230 5274ft 201kts
22-Nov-17 20:02 33.850468 -118.597997 148 6326ft 205kts
22-Nov-17 20:03 33.844787 -118.533300 65 7876ft 224kts
22-Nov-17 20:04 33.888993 -118.480094 41 9381ft 229kts
22-Nov-17 20:05 33.936925 -118.428799 41 10846ft 235kts
22-Nov-17 20:06 33.975611 -118.365762 59 12320ft 239kts
22-Nov-17 20:07 34.010437 -118.296111 56 13828ft 245kts
22-Nov-17 20:08 34.049261 -118.227488 55 14541ft 239kts
22-Nov-17 20:09 34.089336 -118.156683 55 16442ft 268kts
22-Nov-17 20:10 34.131885 -118.081462 55 18248ft 276kts
22-Nov-17 20:11 34.173836 -118.006601 55 20000ft 270kts
22-Nov-17 20:12 34.216340 -117.930731 55 21801ft 278kts
22-Nov-17 20:13 34.260395 -117.852176 55 23610ft 286kts
22-Nov-17 20:14 34.296052 -117.788661 55 25029ft 289kts
22-Nov-17 20:15 34.335059 -117.719244 55 26580ft 299kts
22-Nov-17 20:16 34.383739 -117.635725 54 28395ft 310kts
22-Nov-17 20:17 34.434434 -117.549444 54 28994ft 314kts
22-Nov-17 20:18 34.484960 -117.463474 54 29000ft 314kts
22-Nov-17 20:19 34.535619 -117.377382 54 29000ft 314kts
22-Nov-17 20:20 34.586210 -117.291503 54 29000ft 314kts
22-Nov-17 20:21 34.636965 -117.205448 54 29000ft 314kts
22-Nov-17 20:22 34.687583 -117.119727 54 28993ft 309kts
22-Nov-17 20:23 34.734070 -117.041085 54 29025ft 286kts
22-Nov-17 20:24 34.784835 -116.955311 54 29050ft 349kts
22-Nov-17 20:25 34.848380 -116.848083 54 28688ft 440kts
22-Nov-17 20:26 34.921719 -116.724406 54 27389ft 447kts
22-Nov-17 20:27 34.991053 -116.601220 55 25985ft 437kts
22-Nov-17 20:28 35.059161 -116.480436 54 24580ft 428kts
22-Nov-17 20:29 35.131186 -116.367311 45 24010ft 424kts
22-Nov-17 20:30 35.212948 -116.264163 45 22786ft 417kts
22-Nov-17 20:31 35.292373 -116.163540 46 21037ft 406kts
22-Nov-17 20:32 35.369698 -116.065732 45 19335ft 396kts
22-Nov-17 20:33 35.445262 -115.970359 45 17631ft 386kts
22-Nov-17 20:34 35.516769 -115.880036 45 16082ft 346kts
22-Nov-17 20:35 35.579805 -115.800539 45 14702ft 309kts
22-Nov-17 20:36 35.639183 -115.725717 45 13602ft 304kts
22-Nov-17 20:37 35.697441 -115.651964 45 13004ft 300kts
22-Nov-17 20:38 35.758760 -115.582580 22 12996ft 301kts
22-Nov-17 20:39 35.841772 -115.570858 2 13000ft 301kts
22-Nov-17 20:40 35.925178 -115.566129 2 13000ft 301kts
22-Nov-17 20:41 35.986164 -115.513552 65 12247ft 277kts
22-Nov-17 20:42 36.014602 -115.427067 68 11049ft 269kts
22-Nov-17 20:43 36.029106 -115.338338 91 10545ft 272kts
22-Nov-17 20:44 36.027040 -115.245332 91 8943ft 268kts
22-Nov-17 20:45 36.025054 -115.155018 91 7640ft 254kts
22-Nov-17 20:46 36.023227 -115.070820 91 6582ft 239kts
22-Nov-17 20:47 36.021498 -114.990098 91 5464ft 231kts
22-Nov-17 20:48 36.054212 -114.933565 3 4325ft 225kts
22-Nov-17 20:49 36.089175 -114.980593 259 3600ft 203kts
22-Nov-17 20:50 36.074603 -115.042742 266 3222ft 186kts
22-Nov-17 20:51 36.073710 -115.102008 270 2526ft 164kts
22-Nov-17 20:52 36.073807 -115.148191 284 2149ft 34kts
22-Nov-17 20:53 36.074673 -115.150451 300 2149ft 0kts
22-Nov-17 20:54 36.077146 -115.152148 38 2149ft 9kts
22-Nov-17 20:55 36.079901 -115.147186 62 2149ft 0kts

Navigation Log

Ident Type
Flight plan parsing failed, navigation log unavailable